createdAt,value
2018-12-29T00:00:49.422Z,28.07
2018-12-29T00:03:18.274Z,21.20
2018-12-29T00:05:47.050Z,25.20
2018-12-29T00:08:16.058Z,23.20
2018-12-29T00:10:44.863Z,24.50
2018-12-29T00:13:14.685Z,24.30
2018-12-29T00:15:43.763Z,23.13
2018-12-29T00:18:12.682Z,21.90
2018-12-29T00:20:41.531Z,23.53
2018-12-29T00:23:10.319Z,25.50
2018-12-29T00:25:39.153Z,20.50
2018-12-29T00:28:08.036Z,27.37
2018-12-29T00:30:37.005Z,24.90
2018-12-29T00:33:05.912Z,23.60
2018-12-29T00:35:34.709Z,25.00
2018-12-29T00:38:03.536Z,29.73
2018-12-29T00:40:32.517Z,25.43
2018-12-29T00:43:01.390Z,20.33
2018-12-29T00:45:30.361Z,23.47
2018-12-29T00:47:59.133Z,29.30
2018-12-29T00:50:27.977Z,21.50
2018-12-29T00:52:56.787Z,22.90
2018-12-29T00:55:25.751Z,22.80
2018-12-29T00:57:54.527Z,28.20
2018-12-29T01:00:23.375Z,22.80
2018-12-29T01:02:52.367Z,21.00
2018-12-29T01:05:21.273Z,26.60
2018-12-29T01:07:50.135Z,24.17
2018-12-29T01:10:19.069Z,25.43
2018-12-29T01:12:51.202Z,25.60
2018-12-29T01:15:20.171Z,25.03
2018-12-29T01:17:48.966Z,22.80
2018-12-29T01:20:19.460Z,25.90
2018-12-29T01:22:48.448Z,23.83
2018-12-29T01:25:17.312Z,23.30
2018-12-29T01:27:46.206Z,23.90
2018-12-29T01:30:15.381Z,26.80
2018-12-29T01:32:44.565Z,23.07
2018-12-29T01:35:13.580Z,23.47
2018-12-29T01:37:42.476Z,21.40
2018-12-29T01:40:11.513Z,25.20
2018-12-29T01:42:40.476Z,24.27
2018-12-29T01:45:09.556Z,27.60
2018-12-29T01:47:38.417Z,24.97
2018-12-29T01:50:07.286Z,29.30
2018-12-29T01:52:36.236Z,29.70
2018-12-29T01:55:05.112Z,24.90
2018-12-29T01:57:36.385Z,28.33
2018-12-29T02:00:05.772Z,28.70
2018-12-29T02:02:34.896Z,30.00
2018-12-29T02:05:04.708Z,30.33
2018-12-29T02:07:33.747Z,26.80
2018-12-29T02:10:02.849Z,28.37
2018-12-29T02:12:31.761Z,30.43
2018-12-29T02:15:00.959Z,27.10
2018-12-29T02:17:30.174Z,29.00
2018-12-29T02:20:01.125Z,29.87
2018-12-29T02:22:30.193Z,31.33
2018-12-29T02:24:59.093Z,28.17
2018-12-29T02:27:27.901Z,28.97
2018-12-29T02:29:59.783Z,32.27
2018-12-29T02:32:30.909Z,28.20
2018-12-29T02:35:00.013Z,30.10
2018-12-29T02:37:28.949Z,38.97
2018-12-29T02:39:57.788Z,29.77
2018-12-29T02:42:26.731Z,31.70
2018-12-29T02:44:55.948Z,28.40
2018-12-29T02:47:25.257Z,31.37
2018-12-29T02:49:54.180Z,27.43
2018-12-29T02:52:25.294Z,31.03
2018-12-29T02:54:54.105Z,30.70
2018-12-29T02:57:23.155Z,29.83
2018-12-29T02:59:51.945Z,29.73
2018-12-29T03:02:21.082Z,28.73
2018-12-29T03:04:51.054Z,34.30
2018-12-29T03:07:19.923Z,32.80
2018-12-29T03:09:49.132Z,22.67
2018-12-29T03:12:18.108Z,26.57
2018-12-29T03:14:47.385Z,32.87
2018-12-29T03:17:16.460Z,29.77
2018-12-29T03:19:45.322Z,33.33
2018-12-29T03:22:14.229Z,30.00
2018-12-29T03:24:43.525Z,28.80
2018-12-29T03:27:12.823Z,30.07
2018-12-29T03:29:41.823Z,26.83
2018-12-29T03:32:10.775Z,24.30
2018-12-29T03:34:39.949Z,29.70
2018-12-29T03:37:08.804Z,29.67
2018-12-29T03:39:37.819Z,28.83
2018-12-29T03:42:06.720Z,27.70
2018-12-29T03:44:35.711Z,33.20
2018-12-29T03:47:04.929Z,31.60
2018-12-29T03:49:33.802Z,30.07
2018-12-29T03:52:02.712Z,38.40
2018-12-29T03:54:32.301Z,32.77
2018-12-29T03:57:02.623Z,34.13
2018-12-29T03:59:31.720Z,31.00
2018-12-29T04:02:00.595Z,26.60
2018-12-29T04:04:29.544Z,33.03
2018-12-29T04:06:58.507Z,30.47
2018-12-29T04:09:34.724Z,28.73
2018-12-29T04:12:18.208Z,27.33
2018-12-29T04:14:47.266Z,28.60
2018-12-29T04:17:16.147Z,29.87
2018-12-29T04:19:45.004Z,33.57
2018-12-29T04:22:13.802Z,32.00
2018-12-29T04:24:42.642Z,35.07
2018-12-29T04:27:11.567Z,32.50
2018-12-29T04:29:40.591Z,28.73
2018-12-29T04:32:09.341Z,29.13
2018-12-29T04:34:38.831Z,33.20
2018-12-29T04:37:09.114Z,30.80
2018-12-29T04:39:38.053Z,31.60
2018-12-29T04:42:07.105Z,31.70
2018-12-29T04:44:36.074Z,31.77
2018-12-29T04:47:05.108Z,36.90
2018-12-29T04:49:33.979Z,30.47
2018-12-29T04:52:04.593Z,37.93
2018-12-29T04:54:33.525Z,35.57
2018-12-29T04:57:02.430Z,31.87
2018-12-29T04:59:31.414Z,31.80
2018-12-29T05:02:00.142Z,35.13
2018-12-29T05:04:29.233Z,32.87
2018-12-29T05:06:58.469Z,35.83
2018-12-29T05:09:27.345Z,36.10
2018-12-29T05:11:56.277Z,29.33
2018-12-29T05:14:29.241Z,28.10
2018-12-29T05:16:58.182Z,32.47
2018-12-29T05:19:27.102Z,32.50
2018-12-29T05:21:56.377Z,31.57
2018-12-29T05:24:26.669Z,33.67
2018-12-29T05:26:55.783Z,36.23
2018-12-29T05:29:24.565Z,29.53
2018-12-29T05:31:53.339Z,29.60
2018-12-29T05:34:22.233Z,27.30
2018-12-29T05:36:52.883Z,28.90
2018-12-29T05:39:21.683Z,32.00
2018-12-29T05:41:50.510Z,33.17
2018-12-29T05:44:19.537Z,29.80
2018-12-29T05:46:48.434Z,34.40
2018-12-29T05:49:19.817Z,34.97
2018-12-29T05:51:48.597Z,32.53
2018-12-29T05:54:19.781Z,31.13
2018-12-29T05:56:49.244Z,27.47
2018-12-29T05:59:18.190Z,31.53
2018-12-29T06:01:46.989Z,29.63
2018-12-29T06:04:16.598Z,29.23
2018-12-29T06:06:45.683Z,34.57
2018-12-29T06:09:14.522Z,31.00
2018-12-29T06:11:43.377Z,28.43
2018-12-29T06:14:12.206Z,32.50
2018-12-29T06:16:41.121Z,36.07
2018-12-29T06:19:09.852Z,33.17
2018-12-29T06:21:38.618Z,26.90
2018-12-29T06:24:07.441Z,29.90
2018-12-29T06:26:36.301Z,28.33
2018-12-29T06:29:05.059Z,26.50
2018-12-29T06:31:34.055Z,33.83
2018-12-29T06:34:02.871Z,31.30
2018-12-29T06:36:31.842Z,29.30
2018-12-29T06:39:00.772Z,40.93
2018-12-29T06:41:29.645Z,29.03
2018-12-29T06:43:58.417Z,33.27
2018-12-29T06:46:27.194Z,35.90
2018-12-29T06:48:55.988Z,33.17
2018-12-29T06:51:25.260Z,34.10
2018-12-29T06:53:54.123Z,35.50
2018-12-29T06:56:22.958Z,32.40
2018-12-29T06:58:51.778Z,35.00
2018-12-29T07:01:20.818Z,40.37
2018-12-29T07:03:49.559Z,32.03
2018-12-29T07:06:18.374Z,33.53
2018-12-29T07:08:47.174Z,40.47
2018-12-29T07:11:16.008Z,32.80
2018-12-29T07:13:45.248Z,45.10
2018-12-29T07:16:14.154Z,40.20
2018-12-29T07:18:42.954Z,36.40
2018-12-29T07:21:11.840Z,41.33
2018-12-29T07:23:40.702Z,35.20
2018-12-29T07:26:09.480Z,36.70
2018-12-29T07:28:38.682Z,39.10
2018-12-29T07:31:07.550Z,35.70
2018-12-29T07:33:36.706Z,33.13
2018-12-29T07:36:05.548Z,44.60
2018-12-29T07:38:34.513Z,32.70
2018-12-29T07:41:03.335Z,33.50
2018-12-29T07:43:32.238Z,42.37
2018-12-29T07:46:01.240Z,44.27
2018-12-29T07:48:30.134Z,38.00
2018-12-29T07:50:59.005Z,40.30
2018-12-29T07:53:27.898Z,44.23
2018-12-29T07:55:57.105Z,39.97
2018-12-29T07:58:26.052Z,43.77
2018-12-29T08:00:56.484Z,40.17
2018-12-29T08:03:25.380Z,46.47
2018-12-29T08:05:54.189Z,43.77
2018-12-29T08:08:22.962Z,39.50
2018-12-29T08:10:51.831Z,40.40
2018-12-29T08:13:20.926Z,34.00
2018-12-29T08:15:49.722Z,38.40
2018-12-29T08:18:18.961Z,41.50
2018-12-29T08:20:47.802Z,36.00
2018-12-29T08:23:16.605Z,39.93
2018-12-29T08:25:45.508Z,29.33
2018-12-29T08:28:17.684Z,37.93
2018-12-29T08:30:46.752Z,44.60
2018-12-29T08:33:15.764Z,38.97
2018-12-29T08:35:44.582Z,37.23
2018-12-29T08:38:13.330Z,36.53
2018-12-29T08:40:42.288Z,35.00
2018-12-29T08:43:22.754Z,40.83
2018-12-29T08:45:51.574Z,35.07
2018-12-29T08:48:20.354Z,36.27
2018-12-29T08:50:49.156Z,41.93
2018-12-29T08:53:17.914Z,37.10
2018-12-29T08:55:47.888Z,34.00
2018-12-29T08:58:18.272Z,45.10
2018-12-29T09:00:47.346Z,31.97
2018-12-29T09:03:16.148Z,32.33
2018-12-29T09:05:44.959Z,32.10
2018-12-29T09:08:13.921Z,36.13
2018-12-29T09:10:42.958Z,38.57
2018-12-29T09:13:11.862Z,31.70
2018-12-29T09:15:40.828Z,34.13
2018-12-29T09:18:10.348Z,36.43
2018-12-29T09:20:40.161Z,39.40
2018-12-29T09:23:08.999Z,36.80
2018-12-29T09:25:37.871Z,36.30
2018-12-29T09:28:06.708Z,37.73
2018-12-29T09:30:35.712Z,34.33
2018-12-29T09:33:04.496Z,30.60
2018-12-29T09:35:33.401Z,35.70
2018-12-29T09:38:04.223Z,34.80
2018-12-29T09:40:33.076Z,34.80
2018-12-29T09:43:01.907Z,31.60
2018-12-29T09:45:30.830Z,25.30
2018-12-29T09:47:59.878Z,32.93
2018-12-29T09:50:28.699Z,26.67
2018-12-29T09:52:57.503Z,34.10
2018-12-29T09:55:27.986Z,32.07
2018-12-29T09:57:56.879Z,27.17
2018-12-29T10:00:25.755Z,25.03
2018-12-29T10:02:54.607Z,34.20
2018-12-29T10:05:23.611Z,26.63
2018-12-29T10:07:56.023Z,23.87
2018-12-29T10:10:24.827Z,24.00
2018-12-29T10:12:53.941Z,29.03
2018-12-29T10:15:22.775Z,31.50
2018-12-29T10:17:51.815Z,25.40
2018-12-29T10:20:20.591Z,30.87
2018-12-29T10:22:49.833Z,24.03
2018-12-29T10:25:18.815Z,28.20
2018-12-29T10:27:47.803Z,28.60
2018-12-29T10:30:16.569Z,32.53
2018-12-29T10:32:45.422Z,29.77
2018-12-29T10:35:14.205Z,32.63
2018-12-29T10:37:57.563Z,22.50
2018-12-29T10:40:26.454Z,28.87
2018-12-29T10:42:55.211Z,26.53
2018-12-29T10:45:43.669Z,27.80
2018-12-29T10:48:12.629Z,26.47
2018-12-29T10:50:41.874Z,26.03
2018-12-29T10:53:10.693Z,30.77
2018-12-29T10:55:39.463Z,26.30
2018-12-29T10:58:08.330Z,26.83
2018-12-29T11:00:37.241Z,28.77
2018-12-29T11:03:06.042Z,30.23
2018-12-29T11:05:37.385Z,34.10
2018-12-29T11:08:06.285Z,25.87
2018-12-29T11:10:35.055Z,25.50
2018-12-29T11:13:04.081Z,27.03
2018-12-29T11:15:32.862Z,25.17
2018-12-29T11:18:02.035Z,30.70
2018-12-29T11:20:30.854Z,29.83
2018-12-29T11:22:59.654Z,25.20
2018-12-29T11:25:28.491Z,25.13
2018-12-29T11:27:57.581Z,24.20
2018-12-29T11:30:29.277Z,30.13
2018-12-29T11:32:58.064Z,21.47
2018-12-29T11:35:28.987Z,29.47
2018-12-29T11:37:57.760Z,28.60
2018-12-29T11:40:26.564Z,30.60
2018-12-29T11:42:55.370Z,32.20
2018-12-29T11:45:24.254Z,27.63
2018-12-29T11:47:53.074Z,30.40
2018-12-29T11:50:22.325Z,29.70
2018-12-29T11:52:51.185Z,24.57
2018-12-29T11:55:20.104Z,31.37
2018-12-29T11:57:49.002Z,27.73
2018-12-29T12:00:17.980Z,26.03
2018-12-29T12:02:46.939Z,32.43
2018-12-29T12:05:15.848Z,30.67
2018-12-29T12:07:44.696Z,30.27
2018-12-29T12:10:13.552Z,31.73
2018-12-29T12:12:42.397Z,31.87
2018-12-29T12:15:11.232Z,32.03
2018-12-29T12:17:41.146Z,30.57
2018-12-29T12:20:10.558Z,30.97
2018-12-29T12:22:39.468Z,23.43
2018-12-29T12:25:08.382Z,32.93
2018-12-29T12:27:37.485Z,33.43
2018-12-29T12:30:07.188Z,29.97
2018-12-29T12:32:36.112Z,31.10
2018-12-29T12:35:05.492Z,26.83
2018-12-29T12:37:34.450Z,29.67
2018-12-29T12:40:03.465Z,29.83
2018-12-29T12:42:32.521Z,30.70
2018-12-29T12:45:01.408Z,31.57
2018-12-29T12:47:30.623Z,28.37
2018-12-29T12:49:59.649Z,29.27
2018-12-29T12:52:28.993Z,27.73
2018-12-29T12:54:57.786Z,28.73
2018-12-29T12:57:26.966Z,30.60
2018-12-29T12:59:56.282Z,32.63
2018-12-29T13:02:25.538Z,34.17
2018-12-29T13:04:54.488Z,28.07
2018-12-29T13:07:23.445Z,31.97
2018-12-29T13:09:53.836Z,28.03
2018-12-29T13:12:22.679Z,28.90
2018-12-29T13:14:51.781Z,29.33
2018-12-29T13:17:20.710Z,26.10
2018-12-29T13:19:49.727Z,26.20
2018-12-29T13:22:18.775Z,34.47
2018-12-29T13:24:47.731Z,23.17
2018-12-29T13:27:16.592Z,25.03
2018-12-29T13:29:45.458Z,27.00
2018-12-29T13:32:14.430Z,25.60
2018-12-29T13:34:43.344Z,22.37
2018-12-29T13:37:12.236Z,22.23
2018-12-29T13:39:41.300Z,25.10
2018-12-29T13:42:10.226Z,25.77
2018-12-29T13:44:39.124Z,22.83
2018-12-29T13:47:07.973Z,21.47
2018-12-29T13:49:40.230Z,25.70
2018-12-29T13:52:09.106Z,29.73
2018-12-29T13:54:38.136Z,21.90
2018-12-29T13:57:07.006Z,25.63
2018-12-29T13:59:35.948Z,22.63
2018-12-29T14:02:05.230Z,26.90
2018-12-29T14:04:34.189Z,23.93
2018-12-29T14:07:03.137Z,27.83
2018-12-29T14:09:32.000Z,24.27
2018-12-29T14:12:01.043Z,20.93
2018-12-29T14:14:29.928Z,21.40
2018-12-29T14:16:59.060Z,21.80
2018-12-29T14:19:28.047Z,29.70
2018-12-29T14:21:56.971Z,21.47
2018-12-29T14:24:25.870Z,28.40
2018-12-29T14:26:54.848Z,26.20
2018-12-29T14:29:23.850Z,29.00
2018-12-29T14:31:52.772Z,23.53
2018-12-29T14:34:21.860Z,27.17
2018-12-29T14:36:50.734Z,23.60
2018-12-29T14:39:19.510Z,27.33
2018-12-29T14:41:48.440Z,27.07
2018-12-29T14:44:17.223Z,26.90
2018-12-29T14:46:46.090Z,25.67
2018-12-29T14:49:15.250Z,25.50
2018-12-29T14:51:44.312Z,23.30
2018-12-29T14:54:13.287Z,26.23
2018-12-29T14:56:42.163Z,28.37
2018-12-29T14:59:11.069Z,28.23
2018-12-29T15:01:40.173Z,30.50
2018-12-29T15:04:09.029Z,26.93
2018-12-29T15:06:37.985Z,27.10
2018-12-29T15:09:07.412Z,32.50
2018-12-29T15:11:36.336Z,34.13
2018-12-29T15:14:08.569Z,26.17
2018-12-29T15:16:37.968Z,33.73
2018-12-29T15:19:07.093Z,36.60
2018-12-29T15:21:36.618Z,35.87
2018-12-29T15:24:05.647Z,31.17
2018-12-29T15:26:34.691Z,32.10
2018-12-29T15:29:03.583Z,27.53
2018-12-29T15:31:32.424Z,26.73
2018-12-29T15:34:01.286Z,30.33
2018-12-29T15:36:32.839Z,30.43
2018-12-29T15:39:01.896Z,29.23
2018-12-29T15:41:30.945Z,27.83
2018-12-29T15:44:00.297Z,24.27
2018-12-29T15:46:29.127Z,26.77
2018-12-29T15:48:58.026Z,22.57
2018-12-29T15:51:27.200Z,23.07
2018-12-29T15:53:56.237Z,25.23
2018-12-29T15:56:25.265Z,25.27
2018-12-29T15:58:54.163Z,20.67
2018-12-29T16:01:23.245Z,27.47
2018-12-29T16:03:52.421Z,26.10
2018-12-29T16:06:21.331Z,24.57
2018-12-29T16:08:50.244Z,25.57
2018-12-29T16:11:25.987Z,36.40
2018-12-29T16:13:50.115Z,26.13
2018-12-29T16:16:19.069Z,21.50
2018-12-29T16:18:47.993Z,22.80
2018-12-29T16:21:17.130Z,22.90
2018-12-29T16:23:46.026Z,19.20
2018-12-29T16:26:14.978Z,24.70
2018-12-29T16:28:44.247Z,23.73
2018-12-29T16:31:13.235Z,20.27
2018-12-29T16:33:42.437Z,22.43
2018-12-29T16:36:11.767Z,20.70
2018-12-29T16:38:40.670Z,20.70
2018-12-29T16:41:09.656Z,20.07
2018-12-29T16:43:38.556Z,19.97
2018-12-29T16:46:07.548Z,20.77
2018-12-29T16:48:36.438Z,19.83
2018-12-29T16:51:05.308Z,20.37
2018-12-29T16:53:34.222Z,16.03
2018-12-29T16:56:03.084Z,17.13
2018-12-29T16:58:31.940Z,19.03
2018-12-29T17:01:00.836Z,15.70
2018-12-29T17:03:29.620Z,16.10
2018-12-29T17:05:58.493Z,18.00
2018-12-29T17:08:27.330Z,14.37
2018-12-29T17:10:56.223Z,14.93
2018-12-29T17:13:25.086Z,15.43
2018-12-29T17:15:54.035Z,15.77
2018-12-29T17:18:22.875Z,13.23
2018-12-29T17:20:51.863Z,11.67
2018-12-29T17:23:20.740Z,13.60
2018-12-29T17:25:52.147Z,12.50
2018-12-29T17:28:21.031Z,14.63
2018-12-29T17:30:49.989Z,15.70
2018-12-29T17:33:18.915Z,18.20
2018-12-29T17:35:47.895Z,13.40
2018-12-29T17:38:17.046Z,14.60
2018-12-29T17:40:46.029Z,12.93
2018-12-29T17:43:14.925Z,14.27
2018-12-29T17:45:44.308Z,17.77
2018-12-29T17:48:13.296Z,14.83
2018-12-29T17:50:42.240Z,12.17
2018-12-29T17:53:11.110Z,11.70
2018-12-29T17:55:40.119Z,13.07
2018-12-29T17:58:09.131Z,15.10
2018-12-29T18:00:38.023Z,17.77
2018-12-29T18:03:07.022Z,17.37
2018-12-29T18:05:36.009Z,13.10
2018-12-29T18:08:04.891Z,12.10
2018-12-29T18:10:33.957Z,11.80
2018-12-29T18:13:04.427Z,15.80
2018-12-29T18:15:33.369Z,17.63
2018-12-29T18:18:03.999Z,10.90
2018-12-29T18:20:33.026Z,11.80
2018-12-29T18:23:01.937Z,10.47
2018-12-29T18:25:30.840Z,12.53
2018-12-29T18:27:59.982Z,10.00
2018-12-29T18:30:29.065Z,14.60
2018-12-29T18:32:57.947Z,10.53
2018-12-29T18:35:26.854Z,16.23
2018-12-29T18:37:55.798Z,11.43
2018-12-29T18:40:24.772Z,14.90
2018-12-29T18:42:53.665Z,13.00
2018-12-29T18:45:22.524Z,14.80
2018-12-29T18:47:51.688Z,12.77
2018-12-29T18:50:20.555Z,16.10
2018-12-29T18:52:49.440Z,16.60
2018-12-29T18:55:18.320Z,17.47
2018-12-29T18:57:47.598Z,16.67
2018-12-29T19:00:16.599Z,16.57
2018-12-29T19:02:45.470Z,19.50
2018-12-29T19:05:14.387Z,16.07
2018-12-29T19:07:43.443Z,15.40
2018-12-29T19:10:12.567Z,15.30
2018-12-29T19:12:41.647Z,19.80
2018-12-29T19:15:10.602Z,19.43
2018-12-29T19:17:39.799Z,14.23
2018-12-29T19:20:09.085Z,18.60
2018-12-29T19:22:38.006Z,16.00
2018-12-29T19:25:06.883Z,18.60
2018-12-29T19:27:35.918Z,13.80
2018-12-29T19:30:05.393Z,15.40
2018-12-29T19:32:34.591Z,19.30
2018-12-29T19:35:03.777Z,21.40
2018-12-29T19:37:32.952Z,21.33
2018-12-29T19:40:01.947Z,18.13
2018-12-29T19:42:31.157Z,18.80
2018-12-29T19:45:00.011Z,18.47
2018-12-29T19:47:28.888Z,23.33
2018-12-29T19:49:58.155Z,17.30
2018-12-29T19:52:27.011Z,18.77
2018-12-29T19:54:55.892Z,24.00
2018-12-29T19:57:24.972Z,23.40
2018-12-29T19:59:53.893Z,18.87
2018-12-29T20:02:23.057Z,24.27
2018-12-29T20:04:52.296Z,26.07
2018-12-29T20:07:21.457Z,32.67
2018-12-29T20:09:50.431Z,26.63
2018-12-29T20:12:19.420Z,21.97
2018-12-29T20:14:48.685Z,25.73
2018-12-29T20:17:17.521Z,25.47
2018-12-29T20:19:46.452Z,25.93
2018-12-29T20:22:15.593Z,28.07
2018-12-29T20:24:44.477Z,37.60
2018-12-29T20:27:13.432Z,32.87
2018-12-29T20:29:42.451Z,32.10
2018-12-29T20:32:11.289Z,25.00
2018-12-29T20:34:40.143Z,26.50
2018-12-29T20:37:09.033Z,31.73
2018-12-29T20:39:37.929Z,21.87
2018-12-29T20:42:06.946Z,24.30
2018-12-29T20:44:35.940Z,22.30
2018-12-29T20:47:04.883Z,32.57
2018-12-29T20:49:34.019Z,29.90
2018-12-29T20:52:02.971Z,23.60
2018-12-29T20:54:31.880Z,24.10
2018-12-29T20:57:00.752Z,21.63
2018-12-29T20:59:29.946Z,27.13
2018-12-29T21:01:58.858Z,21.10
2018-12-29T21:04:30.007Z,22.03
2018-12-29T21:06:58.963Z,22.70
2018-12-29T21:09:27.873Z,18.67
2018-12-29T21:11:56.782Z,23.40
2018-12-29T21:14:25.693Z,20.60
2018-12-29T21:16:54.643Z,17.17
2018-12-29T21:19:23.558Z,19.97
2018-12-29T21:21:52.478Z,19.30
2018-12-29T21:24:21.354Z,22.67
2018-12-29T21:26:50.453Z,18.70
2018-12-29T21:29:19.302Z,17.80
2018-12-29T21:31:48.210Z,18.83
2018-12-29T21:34:17.188Z,16.20
2018-12-29T21:36:46.075Z,20.23
2018-12-29T21:39:15.186Z,15.00
2018-12-29T21:41:44.054Z,17.00
2018-12-29T21:44:12.991Z,17.10
2018-12-29T21:46:41.957Z,16.73
2018-12-29T21:49:10.903Z,18.00
2018-12-29T21:51:39.897Z,16.87
2018-12-29T21:54:08.799Z,14.37
2018-12-29T21:56:37.677Z,17.60
2018-12-29T21:59:06.569Z,17.27
2018-12-29T22:01:35.470Z,18.37
2018-12-29T22:04:04.385Z,10.90
2018-12-29T22:06:33.493Z,13.23
2018-12-29T22:09:02.371Z,13.07
2018-12-29T22:11:31.292Z,15.80
2018-12-29T22:14:00.114Z,15.77
2018-12-29T22:16:29.006Z,17.27
2018-12-29T22:18:57.864Z,14.60
2018-12-29T22:21:26.731Z,14.97
2018-12-29T22:23:55.681Z,11.07
2018-12-29T22:26:24.522Z,15.40
2018-12-29T22:28:53.462Z,14.30
2018-12-29T22:31:22.291Z,14.50
2018-12-29T22:33:51.300Z,11.43
2018-12-29T22:36:20.165Z,13.40
2018-12-29T22:38:50.559Z,10.93
2018-12-29T22:41:19.503Z,10.37
2018-12-29T22:43:48.376Z,12.23
2018-12-29T22:46:17.472Z,11.73
2018-12-29T22:48:46.329Z,11.63
2018-12-29T22:51:15.437Z,10.80
2018-12-29T22:53:44.314Z,17.30
2018-12-29T22:56:13.151Z,9.17
2018-12-29T22:58:42.075Z,10.60
2018-12-29T23:01:10.956Z,13.13
2018-12-29T23:03:40.013Z,11.00
2018-12-29T23:06:09.082Z,13.17
2018-12-29T23:08:37.984Z,14.57
2018-12-29T23:11:07.355Z,13.40
2018-12-29T23:13:36.220Z,9.67
2018-12-29T23:16:05.147Z,10.83
2018-12-29T23:18:34.010Z,9.30
2018-12-29T23:21:02.859Z,11.23
2018-12-29T23:23:31.845Z,9.30
2018-12-29T23:26:00.891Z,13.47
2018-12-29T23:28:29.798Z,11.50
2018-12-29T23:30:58.842Z,14.03
2018-12-29T23:33:27.741Z,9.67
2018-12-29T23:35:56.651Z,9.43
2018-12-29T23:38:25.533Z,11.70
2018-12-29T23:40:54.398Z,9.13
2018-12-29T23:43:23.433Z,9.27
2018-12-29T23:45:52.357Z,10.33
2018-12-29T23:48:21.201Z,9.50
2018-12-29T23:50:50.049Z,13.33
2018-12-29T23:53:18.970Z,11.50
2018-12-29T23:55:49.618Z,12.53
2018-12-29T23:58:18.487Z,11.60
